sensor_id;sensor_type;location;lat;lon;timestamp;P1;durP1;ratioP1;P2;durP2;ratioP2
19998;SDS011;10160;50.926;4.374;2024-01-25T00:01:17;59.20;;;8.47;;
19998;SDS011;10160;50.926;4.374;2024-01-25T00:03:43;53.90;;;7.90;;
19998;SDS011;10160;50.926;4.374;2024-01-25T00:06:08;41.43;;;6.70;;
19998;SDS011;10160;50.926;4.374;2024-01-25T00:08:34;54.40;;;6.67;;
19998;SDS011;10160;50.926;4.374;2024-01-25T00:11:03;51.80;;;7.47;;
19998;SDS011;10160;50.926;4.374;2024-01-25T00:13:29;45.23;;;6.27;;
19998;SDS011;10160;50.926;4.374;2024-01-25T00:15:55;39.53;;;7.00;;
19998;SDS011;10160;50.926;4.374;2024-01-25T00:18:21;40.70;;;6.87;;
19998;SDS011;10160;50.926;4.374;2024-01-25T00:20:47;48.27;;;8.83;;
19998;SDS011;10160;50.926;4.374;2024-01-25T00:23:12;56.30;;;7.57;;
19998;SDS011;10160;50.926;4.374;2024-01-25T00:25:38;46.27;;;8.37;;
19998;SDS011;10160;50.926;4.374;2024-01-25T00:28:04;48.20;;;6.73;;
19998;SDS011;10160;50.926;4.374;2024-01-25T00:30:30;55.80;;;8.37;;
19998;SDS011;10160;50.926;4.374;2024-01-25T00:32:56;55.33;;;7.53;;
19998;SDS011;10160;50.926;4.374;2024-01-25T00:35:22;53.03;;;6.97;;
19998;SDS011;10160;50.926;4.374;2024-01-25T00:37:49;56.33;;;8.27;;
19998;SDS011;10160;50.926;4.374;2024-01-25T00:40:14;58.00;;;8.03;;
19998;SDS011;10160;50.926;4.374;2024-01-25T00:42:41;55.00;;;7.57;;
19998;SDS011;10160;50.926;4.374;2024-01-25T00:45:09;45.90;;;7.07;;
19998;SDS011;10160;50.926;4.374;2024-01-25T00:47:35;54.97;;;7.43;;
19998;SDS011;10160;50.926;4.374;2024-01-25T00:50:01;50.40;;;7.33;;
19998;SDS011;10160;50.926;4.374;2024-01-25T00:52:27;53.70;;;9.40;;
19998;SDS011;10160;50.926;4.374;2024-01-25T00:54:53;55.20;;;7.37;;
19998;SDS011;10160;50.926;4.374;2024-01-25T00:57:19;56.17;;;7.93;;
19998;SDS011;10160;50.926;4.374;2024-01-25T00:59:45;49.20;;;7.03;;
19998;SDS011;10160;50.926;4.374;2024-01-25T01:02:12;38.20;;;7.33;;
19998;SDS011;10160;50.926;4.374;2024-01-25T01:04:39;45.20;;;7.67;;
19998;SDS011;10160;50.926;4.374;2024-01-25T01:07:05;54.57;;;7.33;;
19998;SDS011;10160;50.926;4.374;2024-01-25T01:09:31;46.03;;;6.53;;
19998;SDS011;10160;50.926;4.374;2024-01-25T01:11:57;46.03;;;7.10;;
19998;SDS011;10160;50.926;4.374;2024-01-25T01:14:23;54.70;;;6.80;;
19998;SDS011;10160;50.926;4.374;2024-01-25T01:16:48;49.77;;;6.97;;
19998;SDS011;10160;50.926;4.374;2024-01-25T01:19:15;48.90;;;7.47;;
19998;SDS011;10160;50.926;4.374;2024-01-25T01:21:41;39.87;;;6.30;;
19998;SDS011;10160;50.926;4.374;2024-01-25T01:24:09;53.53;;;7.77;;
19998;SDS011;10160;50.926;4.374;2024-01-25T01:26:36;47.37;;;7.00;;
19998;SDS011;10160;50.926;4.374;2024-01-25T01:29:02;55.90;;;8.37;;
19998;SDS011;10160;50.926;4.374;2024-01-25T01:31:27;64.00;;;8.27;;
19998;SDS011;10160;50.926;4.374;2024-01-25T01:33:53;49.40;;;7.33;;
19998;SDS011;10160;50.926;4.374;2024-01-25T01:36:19;43.27;;;6.53;;
19998;SDS011;10160;50.926;4.374;2024-01-25T01:38:45;51.63;;;7.33;;
19998;SDS011;10160;50.926;4.374;2024-01-25T01:41:10;41.87;;;7.13;;
19998;SDS011;10160;50.926;4.374;2024-01-25T01:43:37;46.50;;;6.77;;
19998;SDS011;10160;50.926;4.374;2024-01-25T01:46:04;36.40;;;6.13;;
19998;SDS011;10160;50.926;4.374;2024-01-25T01:48:36;59.97;;;8.20;;
19998;SDS011;10160;50.926;4.374;2024-01-25T01:51:03;60.63;;;7.27;;
19998;SDS011;10160;50.926;4.374;2024-01-25T01:53:29;38.87;;;6.67;;
19998;SDS011;10160;50.926;4.374;2024-01-25T01:55:56;47.40;;;7.07;;
19998;SDS011;10160;50.926;4.374;2024-01-25T01:58:21;47.57;;;7.93;;
19998;SDS011;10160;50.926;4.374;2024-01-25T02:00:48;46.97;;;6.90;;
19998;SDS011;10160;50.926;4.374;2024-01-25T02:03:15;53.27;;;6.70;;
19998;SDS011;10160;50.926;4.374;2024-01-25T02:05:41;43.63;;;6.40;;
19998;SDS011;10160;50.926;4.374;2024-01-25T02:08:07;38.07;;;7.20;;
19998;SDS011;10160;50.926;4.374;2024-01-25T02:10:34;56.77;;;8.23;;
19998;SDS011;10160;50.926;4.374;2024-01-25T02:12:59;44.33;;;6.67;;
19998;SDS011;10160;50.926;4.374;2024-01-25T02:15:25;60.67;;;7.33;;
19998;SDS011;10160;50.926;4.374;2024-01-25T02:17:50;53.23;;;7.33;;
19998;SDS011;10160;50.926;4.374;2024-01-25T02:20:18;41.33;;;6.20;;
19998;SDS011;10160;50.926;4.374;2024-01-25T02:22:43;52.97;;;7.27;;
19998;SDS011;10160;50.926;4.374;2024-01-25T02:25:09;62.83;;;7.73;;
19998;SDS011;10160;50.926;4.374;2024-01-25T02:27:35;48.60;;;7.17;;
19998;SDS011;10160;50.926;4.374;2024-01-25T02:30:04;47.40;;;7.23;;
19998;SDS011;10160;50.926;4.374;2024-01-25T02:32:34;44.17;;;6.90;;
19998;SDS011;10160;50.926;4.374;2024-01-25T02:35:00;40.80;;;6.97;;
19998;SDS011;10160;50.926;4.374;2024-01-25T02:37:26;46.67;;;7.13;;
19998;SDS011;10160;50.926;4.374;2024-01-25T02:39:51;50.57;;;6.10;;
19998;SDS011;10160;50.926;4.374;2024-01-25T02:42:18;59.00;;;8.20;;
19998;SDS011;10160;50.926;4.374;2024-01-25T02:44:44;42.40;;;7.70;;
19998;SDS011;10160;50.926;4.374;2024-01-25T02:47:10;55.03;;;7.83;;
19998;SDS011;10160;50.926;4.374;2024-01-25T02:49:35;42.53;;;6.63;;
19998;SDS011;10160;50.926;4.374;2024-01-25T02:52:01;38.50;;;7.30;;
19998;SDS011;10160;50.926;4.374;2024-01-25T02:54:27;50.50;;;7.70;;
19998;SDS011;10160;50.926;4.374;2024-01-25T02:56:53;45.17;;;6.53;;
19998;SDS011;10160;50.926;4.374;2024-01-25T02:59:19;46.17;;;5.73;;
19998;SDS011;10160;50.926;4.374;2024-01-25T03:01:44;39.97;;;6.27;;
19998;SDS011;10160;50.926;4.374;2024-01-25T03:04:11;43.97;;;6.70;;
19998;SDS011;10160;50.926;4.374;2024-01-25T03:06:37;49.30;;;8.10;;
19998;SDS011;10160;50.926;4.374;2024-01-25T03:09:03;55.00;;;7.73;;
19998;SDS011;10160;50.926;4.374;2024-01-25T03:11:31;43.57;;;6.87;;
19998;SDS011;10160;50.926;4.374;2024-01-25T03:13:57;44.80;;;6.80;;
19998;SDS011;10160;50.926;4.374;2024-01-25T03:16:23;50.13;;;6.57;;
19998;SDS011;10160;50.926;4.374;2024-01-25T03:18:49;43.60;;;7.93;;
19998;SDS011;10160;50.926;4.374;2024-01-25T03:21:14;45.70;;;6.37;;
19998;SDS011;10160;50.926;4.374;2024-01-25T03:23:40;41.03;;;7.00;;
19998;SDS011;10160;50.926;4.374;2024-01-25T03:26:06;49.37;;;6.93;;
19998;SDS011;10160;50.926;4.374;2024-01-25T03:28:32;34.57;;;6.77;;
19998;SDS011;10160;50.926;4.374;2024-01-25T03:30:59;42.13;;;6.70;;
19998;SDS011;10160;50.926;4.374;2024-01-25T03:33:25;33.90;;;5.60;;
19998;SDS011;10160;50.926;4.374;2024-01-25T03:35:53;47.40;;;6.07;;
19998;SDS011;10160;50.926;4.374;2024-01-25T03:38:18;50.53;;;8.00;;
19998;SDS011;10160;50.926;4.374;2024-01-25T03:40:44;44.20;;;6.80;;
19998;SDS011;10160;50.926;4.374;2024-01-25T03:43:10;52.77;;;7.63;;
19998;SDS011;10160;50.926;4.374;2024-01-25T03:45:35;36.43;;;6.27;;
19998;SDS011;10160;50.926;4.374;2024-01-25T03:48:01;50.63;;;8.73;;
19998;SDS011;10160;50.926;4.374;2024-01-25T03:50:27;44.93;;;6.67;;
19998;SDS011;10160;50.926;4.374;2024-01-25T03:52:53;41.53;;;6.13;;
19998;SDS011;10160;50.926;4.374;2024-01-25T03:55:18;40.93;;;6.00;;
19998;SDS011;10160;50.926;4.374;2024-01-25T03:57:44;49.93;;;8.03;;
19998;SDS011;10160;50.926;4.374;2024-01-25T04:00:13;46.80;;;6.30;;
19998;SDS011;10160;50.926;4.374;2024-01-25T04:02:39;50.50;;;6.87;;
19998;SDS011;10160;50.926;4.374;2024-01-25T04:05:05;50.20;;;5.90;;
19998;SDS011;10160;50.926;4.374;2024-01-25T04:07:31;36.67;;;5.63;;
19998;SDS011;10160;50.926;4.374;2024-01-25T04:09:56;49.47;;;7.53;;
19998;SDS011;10160;50.926;4.374;2024-01-25T04:12:22;51.97;;;6.87;;
19998;SDS011;10160;50.926;4.374;2024-01-25T04:14:49;45.23;;;5.97;;
19998;SDS011;10160;50.926;4.374;2024-01-25T04:17:15;46.37;;;6.60;;
19998;SDS011;10160;50.926;4.374;2024-01-25T04:19:41;55.10;;;6.70;;
19998;SDS011;10160;50.926;4.374;2024-01-25T04:22:06;59.47;;;7.23;;
19998;SDS011;10160;50.926;4.374;2024-01-25T04:24:32;59.83;;;6.87;;
19998;SDS011;10160;50.926;4.374;2024-01-25T04:26:58;35.73;;;6.50;;
19998;SDS011;10160;50.926;4.374;2024-01-25T04:29:24;50.33;;;7.00;;
19998;SDS011;10160;50.926;4.374;2024-01-25T04:31:56;40.80;;;7.00;;
19998;SDS011;10160;50.926;4.374;2024-01-25T04:34:24;32.70;;;5.83;;
19998;SDS011;10160;50.926;4.374;2024-01-25T04:36:50;47.80;;;7.23;;
19998;SDS011;10160;50.926;4.374;2024-01-25T04:39:15;44.40;;;7.00;;
19998;SDS011;10160;50.926;4.374;2024-01-25T04:41:41;47.67;;;6.83;;
19998;SDS011;10160;50.926;4.374;2024-01-25T04:44:07;47.00;;;6.50;;
19998;SDS011;10160;50.926;4.374;2024-01-25T04:46:32;54.00;;;6.80;;
19998;SDS011;10160;50.926;4.374;2024-01-25T04:49:01;50.47;;;8.50;;
19998;SDS011;10160;50.926;4.374;2024-01-25T04:51:27;43.87;;;6.53;;
19998;SDS011;10160;50.926;4.374;2024-01-25T04:53:56;42.07;;;6.70;;
19998;SDS011;10160;50.926;4.374;2024-01-25T04:56:22;51.00;;;8.47;;
19998;SDS011;10160;50.926;4.374;2024-01-25T04:58:51;65.00;;;7.77;;
19998;SDS011;10160;50.926;4.374;2024-01-25T05:01:16;34.33;;;6.50;;
19998;SDS011;10160;50.926;4.374;2024-01-25T05:03:42;47.23;;;6.40;;
19998;SDS011;10160;50.926;4.374;2024-01-25T05:06:08;49.43;;;7.53;;
19998;SDS011;10160;50.926;4.374;2024-01-25T05:08:33;51.43;;;7.10;;
19998;SDS011;10160;50.926;4.374;2024-01-25T05:10:59;45.60;;;7.33;;
19998;SDS011;10160;50.926;4.374;2024-01-25T05:13:25;48.97;;;7.47;;
19998;SDS011;10160;50.926;4.374;2024-01-25T05:15:51;49.63;;;7.37;;
19998;SDS011;10160;50.926;4.374;2024-01-25T05:18:16;49.57;;;7.23;;
19998;SDS011;10160;50.926;4.374;2024-01-25T05:20:42;44.30;;;7.00;;
19998;SDS011;10160;50.926;4.374;2024-01-25T05:23:08;41.07;;;6.67;;
19998;SDS011;10160;50.926;4.374;2024-01-25T05:25:34;50.97;;;7.43;;
19998;SDS011;10160;50.926;4.374;2024-01-25T05:27:59;55.43;;;7.37;;
19998;SDS011;10160;50.926;4.374;2024-01-25T05:30:25;43.10;;;6.53;;
19998;SDS011;10160;50.926;4.374;2024-01-25T05:32:52;47.80;;;8.70;;
19998;SDS011;10160;50.926;4.374;2024-01-25T05:35:19;49.47;;;6.80;;
19998;SDS011;10160;50.926;4.374;2024-01-25T05:37:45;42.50;;;7.30;;
19998;SDS011;10160;50.926;4.374;2024-01-25T05:40:10;46.37;;;8.50;;
19998;SDS011;10160;50.926;4.374;2024-01-25T05:42:37;49.63;;;7.90;;
19998;SDS011;10160;50.926;4.374;2024-01-25T05:45:03;51.00;;;8.33;;
19998;SDS011;10160;50.926;4.374;2024-01-25T05:47:29;50.90;;;7.50;;
19998;SDS011;10160;50.926;4.374;2024-01-25T05:49:55;30.97;;;7.30;;
19998;SDS011;10160;50.926;4.374;2024-01-25T05:52:21;54.00;;;8.37;;
19998;SDS011;10160;50.926;4.374;2024-01-25T05:54:49;42.47;;;8.17;;
19998;SDS011;10160;50.926;4.374;2024-01-25T05:57:14;37.57;;;6.97;;
19998;SDS011;10160;50.926;4.374;2024-01-25T05:59:43;45.60;;;8.00;;
19998;SDS011;10160;50.926;4.374;2024-01-25T06:02:09;45.37;;;7.10;;
19998;SDS011;10160;50.926;4.374;2024-01-25T06:04:35;60.53;;;9.27;;
19998;SDS011;10160;50.926;4.374;2024-01-25T06:07:00;52.53;;;8.17;;
19998;SDS011;10160;50.926;4.374;2024-01-25T06:09:27;39.73;;;7.67;;
19998;SDS011;10160;50.926;4.374;2024-01-25T06:11:53;56.17;;;8.73;;
19998;SDS011;10160;50.926;4.374;2024-01-25T06:14:19;44.20;;;7.40;;
19998;SDS011;10160;50.926;4.374;2024-01-25T06:16:45;48.60;;;8.87;;
19998;SDS011;10160;50.926;4.374;2024-01-25T06:19:13;40.73;;;6.93;;
19998;SDS011;10160;50.926;4.374;2024-01-25T06:21:39;52.83;;;8.70;;
19998;SDS011;10160;50.926;4.374;2024-01-25T06:24:05;41.37;;;7.43;;
19998;SDS011;10160;50.926;4.374;2024-01-25T06:26:31;49.17;;;8.70;;
19998;SDS011;10160;50.926;4.374;2024-01-25T06:28:56;49.10;;;8.67;;
19998;SDS011;10160;50.926;4.374;2024-01-25T06:31:25;56.90;;;8.93;;
19998;SDS011;10160;50.926;4.374;2024-01-25T06:33:51;48.10;;;9.23;;
19998;SDS011;10160;50.926;4.374;2024-01-25T06:36:20;56.73;;;9.03;;
19998;SDS011;10160;50.926;4.374;2024-01-25T06:38:47;50.63;;;10.50;;
19998;SDS011;10160;50.926;4.374;2024-01-25T06:41:12;56.73;;;10.07;;
19998;SDS011;10160;50.926;4.374;2024-01-25T06:43:38;48.73;;;9.37;;
19998;SDS011;10160;50.926;4.374;2024-01-25T06:46:05;48.30;;;8.80;;
19998;SDS011;10160;50.926;4.374;2024-01-25T06:48:32;55.37;;;10.23;;
19998;SDS011;10160;50.926;4.374;2024-01-25T06:50:58;60.27;;;10.57;;
19998;SDS011;10160;50.926;4.374;2024-01-25T06:53:23;56.07;;;8.93;;
19998;SDS011;10160;50.926;4.374;2024-01-25T06:55:49;50.00;;;10.27;;
19998;SDS011;10160;50.926;4.374;2024-01-25T06:58:15;63.40;;;11.13;;
19998;SDS011;10160;50.926;4.374;2024-01-25T07:00:40;58.57;;;11.30;;
19998;SDS011;10160;50.926;4.374;2024-01-25T07:03:07;52.10;;;11.53;;
19998;SDS011;10160;50.926;4.374;2024-01-25T07:05:33;55.30;;;10.60;;
19998;SDS011;10160;50.926;4.374;2024-01-25T07:08:00;48.63;;;11.27;;
19998;SDS011;10160;50.926;4.374;2024-01-25T07:10:29;50.60;;;10.27;;
19998;SDS011;10160;50.926;4.374;2024-01-25T07:12:55;68.27;;;12.33;;
19998;SDS011;10160;50.926;4.374;2024-01-25T07:15:20;54.70;;;12.33;;
19998;SDS011;10160;50.926;4.374;2024-01-25T07:17:46;45.77;;;11.33;;
19998;SDS011;10160;50.926;4.374;2024-01-25T07:20:12;54.70;;;12.70;;
19998;SDS011;10160;50.926;4.374;2024-01-25T07:22:38;58.57;;;11.33;;
19998;SDS011;10160;50.926;4.374;2024-01-25T07:25:05;58.20;;;12.63;;
19998;SDS011;10160;50.926;4.374;2024-01-25T07:27:31;51.30;;;12.30;;
19998;SDS011;10160;50.926;4.374;2024-01-25T07:29:56;56.60;;;12.90;;
19998;SDS011;10160;50.926;4.374;2024-01-25T07:32:22;37.70;;;10.97;;
19998;SDS011;10160;50.926;4.374;2024-01-25T07:34:49;40.30;;;11.33;;
19998;SDS011;10160;50.926;4.374;2024-01-25T07:37:15;41.80;;;12.23;;
19998;SDS011;10160;50.926;4.374;2024-01-25T07:39:43;34.97;;;11.13;;
19998;SDS011;10160;50.926;4.374;2024-01-25T07:42:09;46.73;;;13.13;;
19998;SDS011;10160;50.926;4.374;2024-01-25T07:44:36;47.30;;;12.50;;
19998;SDS011;10160;50.926;4.374;2024-01-25T07:47:02;38.87;;;12.50;;
19998;SDS011;10160;50.926;4.374;2024-01-25T07:49:28;52.73;;;14.00;;
19998;SDS011;10160;50.926;4.374;2024-01-25T07:51:54;47.70;;;13.40;;
19998;SDS011;10160;50.926;4.374;2024-01-25T07:54:21;52.87;;;16.40;;
19998;SDS011;10160;50.926;4.374;2024-01-25T07:56:47;36.63;;;13.73;;
19998;SDS011;10160;50.926;4.374;2024-01-25T07:59:13;41.13;;;13.53;;
19998;SDS011;10160;50.926;4.374;2024-01-25T08:01:39;53.03;;;13.53;;
19998;SDS011;10160;50.926;4.374;2024-01-25T08:04:04;28.87;;;12.50;;
19998;SDS011;10160;50.926;4.374;2024-01-25T08:06:30;59.10;;;13.00;;
19998;SDS011;10160;50.926;4.374;2024-01-25T08:08:56;41.17;;;11.40;;
19998;SDS011;10160;50.926;4.374;2024-01-25T08:11:21;35.27;;;11.93;;
19998;SDS011;10160;50.926;4.374;2024-01-25T08:13:48;24.83;;;10.70;;
19998;SDS011;10160;50.926;4.374;2024-01-25T08:16:14;36.47;;;12.57;;
19998;SDS011;10160;50.926;4.374;2024-01-25T08:18:44;35.00;;;12.33;;
19998;SDS011;10160;50.926;4.374;2024-01-25T08:21:12;57.90;;;13.27;;
19998;SDS011;10160;50.926;4.374;2024-01-25T08:23:38;48.87;;;14.80;;
19998;SDS011;10160;50.926;4.374;2024-01-25T08:26:04;35.67;;;15.03;;
19998;SDS011;10160;50.926;4.374;2024-01-25T08:28:34;35.67;;;12.63;;
19998;SDS011;10160;50.926;4.374;2024-01-25T08:31:03;28.20;;;12.27;;
19998;SDS011;10160;50.926;4.374;2024-01-25T08:33:30;35.63;;;14.20;;
19998;SDS011;10160;50.926;4.374;2024-01-25T08:35:55;52.33;;;13.83;;
19998;SDS011;10160;50.926;4.374;2024-01-25T08:38:21;50.03;;;15.07;;
19998;SDS011;10160;50.926;4.374;2024-01-25T08:40:47;43.00;;;15.87;;
19998;SDS011;10160;50.926;4.374;2024-01-25T08:43:12;37.87;;;14.37;;
19998;SDS011;10160;50.926;4.374;2024-01-25T08:45:38;37.93;;;14.83;;
19998;SDS011;10160;50.926;4.374;2024-01-25T08:48:04;45.67;;;17.03;;
19998;SDS011;10160;50.926;4.374;2024-01-25T08:50:30;50.80;;;17.27;;
19998;SDS011;10160;50.926;4.374;2024-01-25T08:52:56;48.60;;;15.93;;
19998;SDS011;10160;50.926;4.374;2024-01-25T08:55:22;44.80;;;15.30;;
19998;SDS011;10160;50.926;4.374;2024-01-25T08:57:48;61.93;;;17.27;;
19998;SDS011;10160;50.926;4.374;2024-01-25T09:00:14;44.53;;;14.93;;
19998;SDS011;10160;50.926;4.374;2024-01-25T09:02:40;48.90;;;15.33;;
19998;SDS011;10160;50.926;4.374;2024-01-25T09:05:07;44.70;;;16.30;;
19998;SDS011;10160;50.926;4.374;2024-01-25T09:07:33;38.97;;;14.93;;
19998;SDS011;10160;50.926;4.374;2024-01-25T09:10:00;63.03;;;17.80;;
19998;SDS011;10160;50.926;4.374;2024-01-25T09:12:26;42.90;;;15.50;;
19998;SDS011;10160;50.926;4.374;2024-01-25T09:14:52;50.30;;;17.27;;
19998;SDS011;10160;50.926;4.374;2024-01-25T09:17:17;53.20;;;18.93;;
19998;SDS011;10160;50.926;4.374;2024-01-25T09:19:47;67.43;;;19.27;;
19998;SDS011;10160;50.926;4.374;2024-01-25T09:22:15;58.27;;;19.43;;
19998;SDS011;10160;50.926;4.374;2024-01-25T09:24:42;56.23;;;19.10;;
19998;SDS011;10160;50.926;4.374;2024-01-25T09:27:08;68.13;;;18.63;;
19998;SDS011;10160;50.926;4.374;2024-01-25T09:29:34;63.60;;;20.13;;
19998;SDS011;10160;50.926;4.374;2024-01-25T09:31:59;58.07;;;18.03;;
19998;SDS011;10160;50.926;4.374;2024-01-25T09:34:25;47.73;;;18.23;;
19998;SDS011;10160;50.926;4.374;2024-01-25T09:36:51;54.57;;;17.80;;
19998;SDS011;10160;50.926;4.374;2024-01-25T09:39:17;58.27;;;18.70;;
19998;SDS011;10160;50.926;4.374;2024-01-25T09:41:42;57.03;;;20.27;;
19998;SDS011;10160;50.926;4.374;2024-01-25T09:44:08;50.17;;;18.57;;
19998;SDS011;10160;50.926;4.374;2024-01-25T09:46:34;56.57;;;18.83;;
19998;SDS011;10160;50.926;4.374;2024-01-25T09:49:03;58.10;;;18.60;;
19998;SDS011;10160;50.926;4.374;2024-01-25T09:51:30;43.10;;;17.67;;
19998;SDS011;10160;50.926;4.374;2024-01-25T09:54:07;54.70;;;18.23;;
19998;SDS011;10160;50.926;4.374;2024-01-25T09:56:34;47.57;;;15.23;;
19998;SDS011;10160;50.926;4.374;2024-01-25T09:59:00;63.37;;;17.50;;
19998;SDS011;10160;50.926;4.374;2024-01-25T10:01:27;54.00;;;16.80;;
19998;SDS011;10160;50.926;4.374;2024-01-25T10:03:53;58.80;;;18.30;;
19998;SDS011;10160;50.926;4.374;2024-01-25T10:06:21;50.93;;;17.10;;
19998;SDS011;10160;50.926;4.374;2024-01-25T10:08:47;50.43;;;17.27;;
19998;SDS011;10160;50.926;4.374;2024-01-25T10:11:13;58.07;;;17.67;;
19998;SDS011;10160;50.926;4.374;2024-01-25T10:13:49;52.63;;;17.17;;
19998;SDS011;10160;50.926;4.374;2024-01-25T10:16:19;61.27;;;17.87;;
19998;SDS011;10160;50.926;4.374;2024-01-25T10:18:46;64.30;;;18.63;;
19998;SDS011;10160;50.926;4.374;2024-01-25T10:21:13;66.27;;;19.07;;
19998;SDS011;10160;50.926;4.374;2024-01-25T10:23:40;68.93;;;20.43;;
19998;SDS011;10160;50.926;4.374;2024-01-25T10:26:08;63.00;;;19.00;;
19998;SDS011;10160;50.926;4.374;2024-01-25T10:28:35;60.97;;;20.77;;
19998;SDS011;10160;50.926;4.374;2024-01-25T10:31:01;61.27;;;19.77;;
19998;SDS011;10160;50.926;4.374;2024-01-25T10:33:29;70.90;;;20.50;;
19998;SDS011;10160;50.926;4.374;2024-01-25T10:35:55;74.47;;;21.43;;
19998;SDS011;10160;50.926;4.374;2024-01-25T10:38:34;88.13;;;20.67;;
19998;SDS011;10160;50.926;4.374;2024-01-25T10:41:04;78.47;;;22.90;;
19998;SDS011;10160;50.926;4.374;2024-01-25T10:43:31;82.63;;;21.23;;
19998;SDS011;10160;50.926;4.374;2024-01-25T10:45:57;76.67;;;20.20;;
19998;SDS011;10160;50.926;4.374;2024-01-25T10:48:27;90.90;;;20.37;;
19998;SDS011;10160;50.926;4.374;2024-01-25T10:50:56;71.43;;;19.80;;
19998;SDS011;10160;50.926;4.374;2024-01-25T10:53:24;83.33;;;21.30;;
19998;SDS011;10160;50.926;4.374;2024-01-25T10:55:51;80.77;;;21.63;;
19998;SDS011;10160;50.926;4.374;2024-01-25T10:58:17;70.53;;;20.53;;
19998;SDS011;10160;50.926;4.374;2024-01-25T11:00:52;71.13;;;21.17;;
19998;SDS011;10160;50.926;4.374;2024-01-25T11:03:26;69.67;;;19.53;;
19998;SDS011;10160;50.926;4.374;2024-01-25T11:06:08;68.97;;;19.07;;
19998;SDS011;10160;50.926;4.374;2024-01-25T11:08:35;73.17;;;17.77;;
19998;SDS011;10160;50.926;4.374;2024-01-25T11:11:03;75.97;;;19.33;;
19998;SDS011;10160;50.926;4.374;2024-01-25T11:13:38;63.97;;;19.63;;
19998;SDS011;10160;50.926;4.374;2024-01-25T11:16:15;79.93;;;21.20;;
19998;SDS011;10160;50.926;4.374;2024-01-25T11:18:52;71.47;;;18.73;;
19998;SDS011;10160;50.926;4.374;2024-01-25T11:21:22;60.37;;;18.87;;
19998;SDS011;10160;50.926;4.374;2024-01-25T11:23:58;59.70;;;17.47;;
19998;SDS011;10160;50.926;4.374;2024-01-25T11:26:28;62.80;;;17.37;;
19998;SDS011;10160;50.926;4.374;2024-01-25T11:28:54;69.27;;;18.40;;
19998;SDS011;10160;50.926;4.374;2024-01-25T11:31:20;65.77;;;18.70;;
19998;SDS011;10160;50.926;4.374;2024-01-25T11:33:47;59.07;;;18.33;;
19998;SDS011;10160;50.926;4.374;2024-01-25T11:36:13;61.43;;;17.70;;
19998;SDS011;10160;50.926;4.374;2024-01-25T11:38:39;55.07;;;15.57;;
19998;SDS011;10160;50.926;4.374;2024-01-25T11:41:04;60.33;;;15.40;;
19998;SDS011;10160;50.926;4.374;2024-01-25T11:43:30;51.97;;;15.27;;
19998;SDS011;10160;50.926;4.374;2024-01-25T11:45:56;52.83;;;14.83;;
19998;SDS011;10160;50.926;4.374;2024-01-25T11:48:21;47.80;;;14.77;;
19998;SDS011;10160;50.926;4.374;2024-01-25T11:50:47;44.50;;;15.00;;
19998;SDS011;10160;50.926;4.374;2024-01-25T11:53:13;44.93;;;14.60;;
19998;SDS011;10160;50.926;4.374;2024-01-25T11:55:39;56.47;;;16.17;;
19998;SDS011;10160;50.926;4.374;2024-01-25T11:58:04;58.60;;;15.30;;
19998;SDS011;10160;50.926;4.374;2024-01-25T12:00:30;46.33;;;14.17;;
19998;SDS011;10160;50.926;4.374;2024-01-25T12:02:59;48.03;;;15.70;;
19998;SDS011;10160;50.926;4.374;2024-01-25T12:05:25;47.23;;;14.43;;
19998;SDS011;10160;50.926;4.374;2024-01-25T12:07:51;46.67;;;14.93;;
19998;SDS011;10160;50.926;4.374;2024-01-25T12:10:17;47.73;;;15.80;;
19998;SDS011;10160;50.926;4.374;2024-01-25T12:12:42;30.57;;;11.17;;
19998;SDS011;10160;50.926;4.374;2024-01-25T12:15:08;36.83;;;13.40;;
19998;SDS011;10160;50.926;4.374;2024-01-25T12:17:34;49.03;;;14.80;;
19998;SDS011;10160;50.926;4.374;2024-01-25T12:20:06;43.17;;;14.20;;
19998;SDS011;10160;50.926;4.374;2024-01-25T12:22:38;43.33;;;15.40;;
19998;SDS011;10160;50.926;4.374;2024-01-25T12:25:07;49.53;;;14.37;;
19998;SDS011;10160;50.926;4.374;2024-01-25T12:27:38;41.53;;;12.83;;
19998;SDS011;10160;50.926;4.374;2024-01-25T12:30:06;39.47;;;12.97;;
19998;SDS011;10160;50.926;4.374;2024-01-25T12:32:33;38.73;;;13.37;;
19998;SDS011;10160;50.926;4.374;2024-01-25T12:35:01;37.33;;;12.60;;
19998;SDS011;10160;50.926;4.374;2024-01-25T12:37:27;34.83;;;11.03;;
19998;SDS011;10160;50.926;4.374;2024-01-25T12:39:53;35.43;;;12.03;;
19998;SDS011;10160;50.926;4.374;2024-01-25T12:42:19;37.80;;;11.00;;
19998;SDS011;10160;50.926;4.374;2024-01-25T12:44:45;41.57;;;10.77;;
19998;SDS011;10160;50.926;4.374;2024-01-25T12:47:12;26.73;;;9.13;;
19998;SDS011;10160;50.926;4.374;2024-01-25T12:49:44;27.47;;;9.63;;
19998;SDS011;10160;50.926;4.374;2024-01-25T12:52:10;37.30;;;10.67;;
19998;SDS011;10160;50.926;4.374;2024-01-25T12:54:37;28.73;;;10.10;;
19998;SDS011;10160;50.926;4.374;2024-01-25T12:57:05;26.33;;;11.77;;
19998;SDS011;10160;50.926;4.374;2024-01-25T12:59:35;26.90;;;12.17;;
19998;SDS011;10160;50.926;4.374;2024-01-25T13:02:05;33.33;;;12.93;;
19998;SDS011;10160;50.926;4.374;2024-01-25T13:04:33;28.77;;;14.07;;
19998;SDS011;10160;50.926;4.374;2024-01-25T13:06:58;31.63;;;14.70;;
19998;SDS011;10160;50.926;4.374;2024-01-25T13:09:24;31.93;;;15.93;;
19998;SDS011;10160;50.926;4.374;2024-01-25T13:11:50;32.00;;;13.93;;
19998;SDS011;10160;50.926;4.374;2024-01-25T13:14:19;27.83;;;13.47;;
19998;SDS011;10160;50.926;4.374;2024-01-25T13:16:44;25.30;;;13.37;;
19998;SDS011;10160;50.926;4.374;2024-01-25T13:19:11;22.40;;;12.70;;
19998;SDS011;10160;50.926;4.374;2024-01-25T13:21:37;21.33;;;11.60;;
19998;SDS011;10160;50.926;4.374;2024-01-25T13:24:03;25.67;;;12.87;;
19998;SDS011;10160;50.926;4.374;2024-01-25T13:26:29;29.53;;;13.13;;
19998;SDS011;10160;50.926;4.374;2024-01-25T13:28:54;21.03;;;11.40;;
19998;SDS011;10160;50.926;4.374;2024-01-25T13:31:20;22.70;;;11.43;;
19998;SDS011;10160;50.926;4.374;2024-01-25T13:33:49;25.67;;;13.77;;
19998;SDS011;10160;50.926;4.374;2024-01-25T13:36:14;26.80;;;12.60;;
19998;SDS011;10160;50.926;4.374;2024-01-25T13:38:40;31.67;;;13.23;;
19998;SDS011;10160;50.926;4.374;2024-01-25T13:41:06;28.23;;;11.90;;
19998;SDS011;10160;50.926;4.374;2024-01-25T13:43:32;27.00;;;12.50;;
19998;SDS011;10160;50.926;4.374;2024-01-25T13:45:57;21.07;;;9.83;;
19998;SDS011;10160;50.926;4.374;2024-01-25T13:48:23;26.37;;;11.43;;
19998;SDS011;10160;50.926;4.374;2024-01-25T13:50:49;21.33;;;10.60;;
19998;SDS011;10160;50.926;4.374;2024-01-25T13:53:14;24.37;;;11.90;;
19998;SDS011;10160;50.926;4.374;2024-01-25T13:55:40;21.97;;;12.17;;
19998;SDS011;10160;50.926;4.374;2024-01-25T13:58:06;17.93;;;11.83;;
19998;SDS011;10160;50.926;4.374;2024-01-25T14:00:31;20.73;;;9.07;;
19998;SDS011;10160;50.926;4.374;2024-01-25T14:02:57;26.57;;;12.73;;
19998;SDS011;10160;50.926;4.374;2024-01-25T14:05:23;22.67;;;12.20;;
19998;SDS011;10160;50.926;4.374;2024-01-25T14:07:48;25.73;;;13.07;;
19998;SDS011;10160;50.926;4.374;2024-01-25T14:10:14;16.70;;;11.27;;
19998;SDS011;10160;50.926;4.374;2024-01-25T14:12:40;20.73;;;12.20;;
19998;SDS011;10160;50.926;4.374;2024-01-25T14:15:06;25.27;;;13.10;;
19998;SDS011;10160;50.926;4.374;2024-01-25T14:17:31;23.03;;;13.70;;
19998;SDS011;10160;50.926;4.374;2024-01-25T14:19:57;29.27;;;14.30;;
19998;SDS011;10160;50.926;4.374;2024-01-25T14:22:23;25.00;;;14.77;;
19998;SDS011;10160;50.926;4.374;2024-01-25T14:24:49;18.73;;;9.23;;